Latest Weather Observations for Newman Airport

IDW60801

Issued at 6:04 pm WST Thursday 29 September 2016 (issued every 30 minutes, with the page automatically refreshed every 10 minutes)

About weather observations | Map of weather stations | Latest weather observations for WA | Other Formats
Station Details ID: 007176 Name: NEWMAN AERO Lat: -23.42 Lon: 119.80 Height: 524.0 m
Data from the previous 72 hours. | See also: Recent months at Newman Airport
Date/Time
WST
Temp
°C
App
Temp
°C
Dew
Point
°C
Rel
Hum
%
Delta-T
°C
Wind Press
QNH
hPa
Press
MSL
hPa
Rain since
9am
mm
Dir  Spd
km/h
Gust
km/h
Spd
kts
Gust
kts
29/06:00pm 26.2 21.7 -6.5 11 13.9 ESE 9 13 5 7 1012.8 1010.5 0.0
29/05:30pm 27.4 23.3 -6.9 10 14.6 SE 7 11 4 6 1012.6 1010.3 0.0
29/05:00pm 27.8 22.9 -6.6 10 14.8 S 11 17 6 9 1012.5 1010.2 0.0
29/04:30pm 28.3 24.3 -7.6 9 15.2 WSW 6 13 3 7 1012.6 1010.3 0.0
29/04:00pm 29.0 25.1 -7.0 9 15.5 SW 6 11 3 6 1012.6 1010.3 0.0
29/03:30pm 28.9 25.3 -7.1 9 15.4 WNW 4 6 2 3 1012.8 1010.5 0.0
29/03:00pm 27.5 23.3 -8.2 9 14.8 E 7 9 4 5 1012.9 1010.6 0.0
29/02:30pm 27.2 22.6 -8.4 9 14.7 E 9 17 5 9 1013.4 1011.1 0.0
29/02:00pm 26.5 22.2 -8.9 9 14.4 N 7 13 4 7 1014.1 1011.8 0.0
29/01:30pm 26.2 22.0 -7.8 10 14.1 NNE 7 19 4 10 1014.5 1012.2 0.0
29/01:00pm 25.5 20.5 -8.3 10 13.8 SE 11 17 6 9 1015.2 1013.0 0.0
29/12:30pm 24.7 20.0 -8.9 10 13.4 NE 9 17 5 9 1015.8 1013.5 0.0
29/12:00pm 23.3 18.2 -8.8 11 12.7 E 11 22 6 12 1016.3 1014.0 0.0
29/11:30am 23.2 18.2 -7.7 12 12.4 ENE 11 20 6 11 1016.9 1014.7 0.0
29/11:00am 21.4 16.0 -8.1 13 11.6 E 13 20 7 11 1017.6 1015.3 0.0
29/10:30am 20.8 15.9 -6.7 15 11.0 E 11 20 6 11 1018.3 1016.0 0.0
29/10:00am 19.6 13.5 -7.7 15 10.6 E 17 30 9 16 1018.5 1016.3 0.0
29/09:30am 18.6 12.0 -6.9 17 9.9 E 20 28 11 15 1018.6 1016.4 0.0
29/09:00am 17.9 10.9 -6.7 18 9.5 ESE 22 30 12 16 1019.0 1016.8 0.0
29/08:30am 17.0 10.6 -6.8 19 9.1 E 19 32 10 17 1019.2 1017.0 0.0
29/08:00am 15.8 8.9 -6.5 21 8.5 E 22 32 12 17 1019.1 1016.9 0.0
29/07:30am 14.4 7.5 -6.4 23 7.8 ESE 22 30 12 16 1018.8 1016.6 0.0
29/07:00am 13.7 7.3 -6.5 24 7.5 ESE 19 32 10 17 1018.4 1016.2 0.0
29/06:30am 12.7 6.7 -6.8 25 7.1 ESE 17 28 9 15 1018.1 1015.8 0.0
29/06:00am 11.9 5.9 -7.0 26 6.8 ESE 17 26 9 14 1017.9 1015.6 0.0
29/05:30am 12.2 5.8 -6.7 26 6.9 ESE 19 26 10 14 1017.7 1015.4 0.0
29/05:00am 12.4 6.7 -7.0 25 7.0 ESE 15 22 8 12 1017.2 1015.0 0.0
29/04:30am 12.4 7.1 -7.0 25 7.0 ESE 13 20 7 11 1017.0 1014.8 0.0
29/04:00am 12.1 7.2 -7.3 25 7.0 SE 11 15 6 8 1016.7 1014.5 0.0
29/03:30am 12.0 7.5 -6.9 26 6.8 ESE 9 11 5 6 1016.5 1014.2 0.0
29/03:00am 13.1 8.6 -7.0 24 7.3 SE 9 17 5 9 1016.6 1014.3 0.0
29/02:30am 13.6 8.7 -7.1 23 7.6 SE 11 15 6 8 1016.5 1014.2 0.0
29/02:00am 14.2 8.6 -6.6 23 7.8 SE 15 20 8 11 1016.4 1014.1 0.0
29/01:30am 11.9 6.7 -6.0 28 6.6 SE 13 17 7 9 1016.6 1014.3 0.0
29/01:00am 12.0 7.2 -5.9 28 6.6 SE 11 19 6 10 1016.7 1014.5 0.0
29/12:30am 12.0 7.9 -6.4 27 6.7 SE 7 11 4 6 1017.1 1014.9 0.0
29/12:00am 12.7 8.2 -6.8 25 7.1 SE 9 13 5 7 1017.4 1015.1 0.0
 
Date/Time
WST
Temp
°C
App
Temp
°C
Dew
Point
°C
Rel
Hum
%
Delta-T
°C
Wind Press
QNH
hPa
Press
MSL
hPa
Rain since
9am
mm
Dir  Spd
km/h
Gust
km/h
Spd
kts
Gust
kts
28/11:30pm 13.4 8.9 -6.7 24 7.4 SSE 9 13 5 7 1017.7 1015.4 0.0
28/11:00pm 13.5 9.0 -6.6 24 7.4 S 9 11 5 6 1018.0 1015.7 0.0
28/10:30pm 14.4 9.9 -6.4 23 7.8 SSE 9 11 5 6 1018.0 1015.7 0.0
28/10:00pm 14.3 9.8 -7.1 22 7.9 SSE 9 9 5 5 1018.0 1015.7 0.0
28/09:30pm 15.6 11.4 -7.2 20 8.6 SSE 7 11 4 6 1018.0 1015.7 0.0
28/09:00pm 15.9 11.3 -7.7 19 8.8 S 9 11 5 6 1017.8 1015.5 0.0
28/08:30pm 16.6 12.0 -7.8 18 9.1 S 9 11 5 6 1017.6 1015.3 0.0
28/08:00pm 17.8 13.6 -8.3 16 9.8 S 7 9 4 5 1017.2 1015.0 0.0
28/07:30pm 18.8 14.2 -8.3 15 10.3 SSE 9 9 5 5 1016.8 1014.6 0.0
28/07:00pm 20.7 15.6 -9.7 12 11.5 SSE 11 13 6 7 1016.6 1014.3 0.0
28/06:30pm 21.9 16.8 -9.9 11 12.1 S 11 13 6 7 1016.1 1013.8 0.0
28/06:00pm 23.6 18.4 -11.1 9 13.1 SSE 11 19 6 10 1015.7 1013.4 0.0
28/05:30pm 25.1 18.7 -11.4 8 14.0 SE 17 26 9 14 1015.2 1013.0 0.0
28/05:00pm 25.8 19.0 -9.4 9 14.1 SSE 20 32 11 17 1014.8 1012.5 0.0
28/04:30pm 26.3 19.6 -7.7 10 14.1 SSE 20 32 11 17 1014.4 1012.1 0.0
28/04:00pm 26.7 20.2 -7.4 10 14.3 SE 19 32 10 17 1014.4 1012.1 0.0
28/03:30pm 26.3 19.7 -6.5 11 13.9 SSE 20 32 11 17 1014.4 1012.1 0.0
28/03:00pm 26.6 19.7 -6.2 11 14.0 SSE 22 32 12 17 1014.6 1012.3 0.0
28/02:30pm 25.4 19.4 -3.1 15 12.8 SSE 19 28 10 15 1014.8 1012.5 0.0
28/02:00pm 25.3 19.1 -3.2 15 12.7 S 20 32 11 17 1015.4 1013.1 0.0
28/01:30pm 25.5 19.5 -3.0 15 12.8 S 19 28 10 15 1015.6 1013.3 0.0
28/01:00pm 24.7 18.4 -3.6 15 12.5 S 20 32 11 17 1016.0 1013.7 0.0
28/12:30pm 24.8 19.2 -2.7 16 12.3 S 17 28 9 15 1016.5 1014.2 0.0
28/12:00pm 23.3 16.5 -1.6 19 11.3 SSE 24 33 13 18 1016.8 1014.6 0.0
28/11:30am 23.1 17.1 0.9 23 10.5 SSW 22 30 12 16 1017.5 1015.2 0.0
28/11:00am 21.8 16.5 2.0 27 9.5 S 19 33 10 18 1017.8 1015.5 0.0
28/10:30am 20.8 14.8 1.1 27 9.2 S 22 35 12 19 1018.1 1015.8 0.0
28/10:00am 20.1 14.6 2.0 30 8.5 S 20 32 11 17 1018.2 1015.9 0.0
28/09:30am 19.4 13.5 1.9 31 8.2 SSW 22 37 12 20 1018.2 1015.9 0.0
28/09:00am 18.5 11.9 1.9 33 7.7 SSW 26 37 14 20 1018.2 1015.9 0.0
28/08:30am 17.6 10.7 2.4 36 7.1 S 28 39 15 21 1018.1 1015.8 0.0
28/08:00am 17.2 10.7 2.8 38 6.8 S 26 37 14 20 1017.7 1015.4 0.0
28/07:30am 16.8 10.6 2.4 38 6.7 SSW 24 33 13 18 1017.4 1015.1 0.0
28/07:00am 16.4 11.1 2.8 40 6.3 SSW 20 28 11 15 1016.8 1014.6 0.0
28/06:30am 15.4 10.6 2.6 42 5.9 SSW 17 24 9 13 1016.4 1014.1 0.0
28/06:00am 14.5 9.9 1.4 41 5.8 SSW 15 20 8 11 1016.1 1013.8 0.0
28/05:30am 13.7 9.2 0.0 39 5.9 SW 13 17 7 9 1015.6 1013.3 0.0
28/05:00am 14.1 9.5 -0.7 36 6.3 SSW 13 17 7 9 1015.1 1012.9 0.0
28/04:30am 15.3 10.8 -0.4 34 6.8 SW 13 17 7 9 1014.5 1012.2 0.0
28/04:00am 15.7 10.7 -0.9 32 7.1 SW 15 20 8 11 1014.1 1011.8 0.0
28/03:30am 15.2 10.8 -2.2 30 7.2 SW 11 15 6 8 1013.8 1011.5 0.0
28/03:00am 14.6 10.4 -3.7 28 7.3 WSW 9 11 5 6 1013.6 1011.3 0.0
28/02:30am 15.6 11.8 -3.8 26 7.8 WSW 7 9 4 5 1013.2 1010.9 0.0
28/02:00am 16.0 11.8 -4.0 25 8.1 WSW 9 11 5 6 1013.1 1010.8 0.0
28/01:30am 15.7 11.5 -4.2 25 8.0 WSW 9 11 5 6 1013.4 1011.1 0.0
28/01:00am 17.8 14.1 -4.8 21 9.1 WNW 6 6 3 3 1013.2 1010.9 0.0
28/12:30am 19.1 15.2 -4.4 20 9.7 WSW 7 13 4 7 1013.2 1010.9 0.0
28/12:00am 19.9 14.9 -4.4 19 10.1 SW 13 19 7 10 1013.0 1010.7 0.0
 
Date/Time
WST
Temp
°C
App
Temp
°C
Dew
Point
°C
Rel
Hum
%
Delta-T
°C
Wind Press
QNH
hPa
Press
MSL
hPa
Rain since
9am
mm
Dir  Spd
km/h
Gust
km/h
Spd
kts
Gust
kts
27/11:30pm 18.2 13.9 -4.5 21 9.3 WSW 9 13 5 7 1012.9 1010.6 0.0
27/11:00pm 20.0 15.7 -5.0 18 10.3 SW 9 11 5 6 1012.8 1010.5 0.0
27/10:30pm 20.9 16.6 -5.0 17 10.7 SW 9 13 5 7 1012.8 1010.5 0.0
27/10:00pm 21.5 16.4 -5.3 16 11.1 SW 13 17 7 9 1012.8 1010.5 0.0
27/09:30pm 21.0 16.2 -5.7 16 10.9 WSW 11 13 6 7 1012.5 1010.2 0.0
27/09:00pm 21.8 17.5 -5.1 16 11.2 SW 9 11 5 6 1012.4 1010.1 0.0
27/08:30pm 22.9 18.1 -6.0 14 12.0 SW 11 15 6 8 1012.1 1009.8 0.0
27/08:00pm 22.7 18.1 -4.4 16 11.6 WSW 11 13 6 7 1011.9 1009.6 0.0
27/07:30pm 24.0 19.8 -4.2 15 12.2 WSW 9 11 5 6 1011.6 1009.2 0.0
27/07:00pm 25.9 21.6 -4.6 13 13.4 WSW 9 11 5 6 1011.2 1008.9 0.0
27/06:30pm 27.0 22.7 -4.8 12 14.0 WNW 9 9 5 5 1010.9 1008.6 0.0
27/06:00pm 29.1 24.7 -5.6 10 15.3 WNW 9 13 5 7 1010.5 1008.2 0.0
27/05:30pm 30.6 25.1 -5.8 9 16.2 WNW 15 26 8 14 1010.2 1007.9 0.0
27/05:00pm 31.3 25.8 -5.3 9 16.6 NW 15 26 8 14 1010.0 1007.7 0.0
27/04:30pm 31.7 25.9 -5.0 9 16.7 NW 17 26 9 14 1010.1 1007.8 0.0
27/04:00pm 31.2 25.3 -5.4 9 16.5 WNW 17 26 9 14 1010.1 1007.8 0.0
27/03:30pm 31.1 26.5 -4.1 10 16.2 WNW 11 26 6 14 1010.2 1007.9 0.0
27/03:00pm 31.4 26.5 -3.8 10 16.3 WNW 13 26 7 14 1010.5 1008.2 0.0
27/02:30pm 31.4 25.9 -5.2 9 16.6 WNW 15 24 8 13 1010.7 1008.4 0.0
27/02:00pm 30.9 25.1 -4.2 10 16.1 NNW 17 28 9 15 1011.0 1008.7 0.0
27/01:30pm 31.6 26.1 -5.1 9 16.7 W 15 26 8 14 1011.5 1009.1 0.0
27/01:00pm 29.8 24.1 -3.8 11 15.4 N 17 26 9 14 1012.1 1009.8 0.0
27/12:30pm 28.9 24.8 -3.3 12 14.8 ENE 9 19 5 10 1012.7 1010.4 0.0
27/12:00pm 29.1 25.0 -3.2 12 14.9 S 9 15 5 8 1013.4 1011.1 0.0
27/11:30am 28.0 24.4 -4.0 12 14.4 NE 6 11 3 6 1014.1 1011.8 0.0
27/11:00am 27.8 24.3 -3.1 13 14.1 SE 6 15 3 8 1014.6 1012.3 0.0
27/10:30am 26.7 21.8 -3.0 14 13.5 E 13 24 7 13 1015.1 1012.9 0.0
27/10:00am 25.9 21.5 -2.7 15 12.9 E 11 19 6 10 1015.8 1013.5 0.0
27/09:30am 25.0 19.8 -2.5 16 12.4 E 15 24 8 13 1016.2 1013.9 0.0
27/09:00am 23.9 18.8 -1.8 18 11.6 E 15 24 8 13 1016.4 1014.1 0.0
27/08:30am 22.8 17.3 -2.0 19 11.1 E 17 24 9 13 1016.5 1014.2 0.0
27/08:00am 21.5 15.6 -2.4 20 10.5 E 19 30 10 16 1016.5 1014.2 0.0
27/07:30am 18.8 15.2 -2.2 24 9.0 E 7 15 4 8 1016.5 1014.2 0.0
27/07:00am 15.6 12.1 -2.8 28 7.6 SSW 6 9 3 5 1016.3 1014.0 0.0
27/06:30am 12.9 9.2 -3.0 33 6.3 SW 7 9 4 5 1016.0 1013.7 0.0
27/06:00am 10.3 6.2 -3.0 39 5.2 SW 9 11 5 6 1016.0 1013.7 0.0
27/05:30am 9.7 5.5 -3.6 39 5.1 SSW 9 11 5 6 1015.8 1013.5 0.0
27/05:00am 9.9 6.1 -3.7 38 5.2 SSW 7 11 4 6 1015.5 1013.2 0.0
27/04:30am 10.2 6.4 -3.5 38 5.3 SW 7 9 4 5 1015.1 1012.9 0.0
27/04:00am 10.6 6.8 -3.5 37 5.4 SW 7 7 4 4 1014.9 1012.6 0.0
27/03:30am 11.1 8.6 -3.8 35 5.7 CALM 0 0 0 0 1014.8 1012.5 0.0
27/03:00am 11.5 8.6 -3.8 34 5.9 WSW 2 6 1 3 1014.8 1012.5 0.0
27/02:30am 12.3 9.1 -3.5 33 6.2 WSW 4 7 2 4 1014.9 1012.6 0.0
27/02:00am 12.4 9.9 -4.2 31 6.4 CALM 0 0 0 0 1014.8 1012.5 0.0
27/01:30am 14.0 10.4 -3.7 29 7.0 SSE 6 7 3 4 1015.0 1012.8 0.0
27/01:00am 14.9 11.1 -3.9 27 7.5 S 7 9 4 5 1015.2 1013.0 0.0
27/12:30am 16.0 12.2 -4.0 25 8.1 SE 7 9 4 5 1015.4 1013.1 0.0
27/12:00am 15.9 11.7 -4.1 25 8.0 S 9 13 5 7 1015.5 1013.2 0.0
 
Date/Time
WST
Temp
°C
App
Temp
°C
Dew
Point
°C
Rel
Hum
%
Delta-T
°C
Wind Press
QNH
hPa
Press
MSL
hPa
Rain since
9am
mm
Dir  Spd
km/h
Gust
km/h
Spd
kts
Gust
kts
26/11:30pm 16.4 12.2 -4.2 24 8.3 SSE 9 13 5 7 1015.6 1013.3 0.0
26/11:00pm 17.2 12.5 -4.7 22 8.8 SSE 11 15 6 8 1015.8 1013.5 0.0
26/10:30pm 18.0 13.0 -4.6 21 9.2 S 13 17 7 9 1016.0 1013.7 0.0
26/10:00pm 18.0 13.3 -4.6 21 9.2 S 11 15 6 8 1016.1 1013.8 0.0
26/09:30pm 18.5 14.2 -4.9 20 9.5 S 9 13 5 7 1016.2 1013.9 0.0
26/09:00pm 18.9 14.6 -4.5 20 9.6 SSE 9 11 5 6 1016.0 1013.7 0.0
26/08:30pm 20.1 15.8 -4.9 18 10.3 SSE 9 13 5 7 1015.8 1013.5 0.0
26/08:00pm 20.6 16.3 -5.3 17 10.6 S 9 11 5 6 1015.6 1013.3 0.0
26/07:30pm 21.7 17.4 -5.2 16 11.2 S 9 11 5 6 1015.2 1013.0 0.0
26/07:00pm 22.9 18.6 -5.1 15 11.8 SSE 9 11 5 6 1014.8 1012.5 0.0
26/06:30pm 24.6 20.2 -5.6 13 12.8 SSE 9 13 5 7 1014.4 1012.1 0.0

Other Formats:

Comma delimited format used in spreadsheet applications
http://www.bom.gov.au/fwo/IDW60801/IDW60801.94317.axf

JavaScript Object Notation format (JSON) in row-major order
http://www.bom.gov.au/fwo/IDW60801/IDW60801.94317.json